Meteorológiai információk azoknak akik tudják olvasni.

METAR = LHBP 291800Z 30017KT CAVOK 02/M03 Q1003 NOSIG

9 órás TAF = TAF TAF LHBP 242330Z 2423/2424 30008KT CAVOK BECMG 2506/2509 24010KT OVC030 TEMPO 2509/2515 24015G25KT 8000 -RA BKN013 OVC025 BECMG 2515/2518 30008KT CAVOK

24 órás TAF = TAF TAF LHBP 291715Z 2918/3018 31012KT CAVOK TEMPO 2921/3008 BKN015 BECMG 3012/3014 23015G25KT BKN040 BKN060 TEMPO 3014/3018 4000 -SNRA -RA BR BKN010 OVC030

ÁLLOMÁS.................... LHBP
ÉSZLELÉS................... Mon Nov 29, 19:00 CET
MOST....................... Mon Nov 29, 19:24 CET
IDŐ........................ 24 perccel ezelőtt
SZÉL....................... NYÉNY irányból 17 csomó
LÁTÁSTÁVOLSÁG.............. 10 km vagy több
FELHŐZET................... jelentős felhőzet nincs
HŐMÉRSÉKLET................ 36°F (2°C)
HŐÉRZET.................... 26°F (-3°C)
HARMATPONT................. 27°F (-3°C)
PÁRATARTALOM............... 70%
LÉGNYOMÁS.................. 1003 hPa (29.62 in Hg)

További információ LHBP állomásról

Meteor információ kérése:        állomásról.    

 

www.tothgeza.hu

 

English version
Copyright © 2003-2021 Tóth Géza Minden jog fenntartva.